createdAt,value
2019-05-02T00:00:53.388Z,79.87
2019-05-02T00:01:53.378Z,80.42
2019-05-02T00:02:53.356Z,80.38
2019-05-02T00:03:53.349Z,80.21
2019-05-02T00:04:55.772Z,80.38
2019-05-02T00:05:53.321Z,80.07
2019-05-02T00:06:53.334Z,80.42
2019-05-02T00:07:53.879Z,80.28
2019-05-02T00:08:53.292Z,80.11
2019-05-02T00:09:53.311Z,80.18
2019-05-02T00:10:53.272Z,80.58
2019-05-02T00:11:58.867Z,80.07
2019-05-02T00:12:53.248Z,79.87
2019-05-02T00:13:53.231Z,79.80
2019-05-02T00:14:56.444Z,80.32
2019-05-02T00:15:53.248Z,80.07
2019-05-02T00:16:53.211Z,79.87
2019-05-02T00:17:56.802Z,79.87
2019-05-02T00:18:53.212Z,79.70
2019-05-02T00:19:53.161Z,79.57
2019-05-02T00:20:57.025Z,79.66
2019-05-02T00:21:53.182Z,79.36
2019-05-02T00:22:53.468Z,79.25
2019-05-02T00:23:53.139Z,79.57
2019-05-02T00:24:53.124Z,79.36
2019-05-02T00:25:54.373Z,79.16
2019-05-02T00:26:56.174Z,79.36
2019-05-02T00:27:54.095Z,79.25
2019-05-02T00:28:53.076Z,79.05
2019-05-02T00:29:53.758Z,79.57
2019-05-02T00:30:53.063Z,79.36
2019-05-02T00:31:53.233Z,79.16
2019-05-02T00:32:57.838Z,78.75
2019-05-02T00:33:53.053Z,78.85
2019-05-02T00:34:53.009Z,79.25
2019-05-02T00:35:53.023Z,79.05
2019-05-02T00:36:52.974Z,78.75
2019-05-02T00:37:57.367Z,79.16
2019-05-02T00:38:53.000Z,78.64
2019-05-02T00:39:52.945Z,78.64
2019-05-02T00:40:57.482Z,78.61
2019-05-02T00:41:53.932Z,78.61
2019-05-02T00:42:53.182Z,78.64
2019-05-02T00:43:52.935Z,78.75
2019-05-02T00:44:52.928Z,79.16
2019-05-02T00:45:54.987Z,78.85
2019-05-02T00:46:53.921Z,79.19
2019-05-02T00:47:52.856Z,79.16
2019-05-02T00:48:54.045Z,79.05
2019-05-02T00:49:53.886Z,79.36
2019-05-02T00:50:52.837Z,79.16
2019-05-02T00:51:56.563Z,79.09
2019-05-02T00:52:52.828Z,79.25
2019-05-02T00:53:52.791Z,78.85
2019-05-02T00:54:55.032Z,79.05
2019-05-02T00:55:52.864Z,79.39
2019-05-02T00:56:52.753Z,79.05
2019-05-02T00:57:55.644Z,78.85
2019-05-02T00:58:52.768Z,78.85
2019-05-02T00:59:52.721Z,78.75
2019-05-02T01:00:53.133Z,79.05
2019-05-02T01:01:52.712Z,79.39
2019-05-02T01:02:52.702Z,79.39
2019-05-02T01:03:53.839Z,78.99
2019-05-02T01:04:52.667Z,79.39
2019-05-02T01:05:52.697Z,79.39
2019-05-02T01:06:52.682Z,79.60
2019-05-02T01:07:55.904Z,79.09
2019-05-02T01:08:53.637Z,79.29
2019-05-02T01:09:52.661Z,79.29
2019-05-02T01:10:56.958Z,79.29
2019-05-02T01:11:53.726Z,79.50
2019-05-02T01:12:52.623Z,79.29
2019-05-02T01:13:55.651Z,79.50
2019-05-02T01:14:52.569Z,79.39
2019-05-02T01:15:52.560Z,79.50
2019-05-02T01:16:54.434Z,79.29
2019-05-02T01:17:52.574Z,79.29
2019-05-02T01:18:52.517Z,79.39
2019-05-02T01:19:52.739Z,78.99
2019-05-02T01:20:52.525Z,79.50
2019-05-02T01:21:52.501Z,79.29
2019-05-02T01:22:53.632Z,79.29
2019-05-02T01:23:52.485Z,79.29
2019-05-02T01:24:52.454Z,79.39
2019-05-02T01:25:52.715Z,79.50
2019-05-02T01:26:52.503Z,79.74
2019-05-02T01:27:52.416Z,79.23
2019-05-02T01:28:54.342Z,79.43
2019-05-02T01:29:52.509Z,79.33
2019-05-02T01:30:52.397Z,79.94
2019-05-02T01:31:54.708Z,80.76
2019-05-02T01:32:52.530Z,79.43
2019-05-02T01:33:52.352Z,79.74
2019-05-02T01:34:54.486Z,79.84
2019-05-02T01:35:52.549Z,79.53
2019-05-02T01:36:52.323Z,79.74
2019-05-02T01:37:54.901Z,79.74
2019-05-02T01:38:52.570Z,79.88
2019-05-02T01:39:52.335Z,80.15
2019-05-02T01:40:54.533Z,79.68
2019-05-02T01:41:52.589Z,79.27
2019-05-02T01:42:52.258Z,79.68
2019-05-02T01:43:54.865Z,80.08
2019-05-02T01:44:52.255Z,79.68
2019-05-02T01:45:52.276Z,79.57
2019-05-02T01:46:54.123Z,80.39
2019-05-02T01:47:53.216Z,80.39
2019-05-02T01:48:52.203Z,80.80
2019-05-02T01:49:57.183Z,80.19
2019-05-02T01:50:52.206Z,80.80
2019-05-02T01:51:52.157Z,80.63
2019-05-02T01:52:53.714Z,80.60
2019-05-02T01:53:52.143Z,80.53
2019-05-02T01:54:52.121Z,80.83
2019-05-02T01:55:57.281Z,80.74
2019-05-02T01:56:52.098Z,80.63
2019-05-02T01:57:52.086Z,80.53
2019-05-02T01:58:53.073Z,80.22
2019-05-02T01:59:52.084Z,80.94
2019-05-02T02:00:52.067Z,80.94
2019-05-02T02:01:53.286Z,80.77
2019-05-02T02:02:53.036Z,80.57
2019-05-02T02:03:52.035Z,80.77
2019-05-02T02:04:56.481Z,80.98
2019-05-02T02:05:52.011Z,80.77
2019-05-02T02:06:52.034Z,81.04
2019-05-02T02:07:55.463Z,80.98
2019-05-02T02:08:51.972Z,80.77
2019-05-02T02:09:51.961Z,80.77
2019-05-02T02:10:56.201Z,81.29
2019-05-02T02:11:51.948Z,81.63
2019-05-02T02:13:03.383Z,82.10
2019-05-02T02:13:51.945Z,82.24
2019-05-02T02:14:53.619Z,81.79
2019-05-02T02:15:51.893Z,82.21
2019-05-02T02:16:51.894Z,82.00
2019-05-02T02:17:52.655Z,81.43
2019-05-02T02:18:51.876Z,82.00
2019-05-02T02:19:51.843Z,82.31
2019-05-02T02:20:51.835Z,82.14
2019-05-02T02:21:51.828Z,80.91
2019-05-02T02:22:51.838Z,81.38
2019-05-02T02:23:51.843Z,81.18
2019-05-02T02:24:55.901Z,80.91
2019-05-02T02:25:52.842Z,81.22
2019-05-02T02:26:51.773Z,81.01
2019-05-02T02:27:54.943Z,80.91
2019-05-02T02:28:51.787Z,80.81
2019-05-02T02:29:51.755Z,81.01
2019-05-02T02:30:57.724Z,81.46
2019-05-02T02:31:51.720Z,82.04
2019-05-02T02:32:51.717Z,82.08
2019-05-02T02:33:51.706Z,82.55
2019-05-02T02:34:51.722Z,81.52
2019-05-02T02:35:52.195Z,81.63
2019-05-02T02:36:51.683Z,81.67
2019-05-02T02:37:52.950Z,81.77
2019-05-02T02:38:51.640Z,81.67
2019-05-02T02:39:54.019Z,82.55
2019-05-02T02:40:51.619Z,81.73
2019-05-02T02:41:53.955Z,81.67
2019-05-02T02:42:51.595Z,81.73
2019-05-02T02:43:54.752Z,82.55
2019-05-02T02:44:52.622Z,81.77
2019-05-02T02:45:57.498Z,81.43
2019-05-02T02:46:51.558Z,82.39
2019-05-02T02:47:52.982Z,82.39
2019-05-02T02:48:52.528Z,81.98
2019-05-02T02:49:55.689Z,82.18
2019-05-02T02:50:52.557Z,82.28
2019-05-02T02:51:51.501Z,82.28
2019-05-02T02:52:51.523Z,81.46
2019-05-02T02:54:03.202Z,81.46
2019-05-02T02:54:51.467Z,81.50
2019-05-02T02:56:01.131Z,81.46
2019-05-02T02:56:51.452Z,81.67
2019-05-02T02:57:51.430Z,81.46
2019-05-02T02:58:51.431Z,82.53
2019-05-02T02:59:51.443Z,82.32
2019-05-02T03:00:51.419Z,82.22
2019-05-02T03:01:51.397Z,82.01
2019-05-02T03:02:51.388Z,82.42
2019-05-02T03:03:51.421Z,83.28
2019-05-02T03:04:51.384Z,83.69
2019-05-02T03:05:51.346Z,83.59
2019-05-02T03:06:51.388Z,83.80
2019-05-02T03:07:51.321Z,83.90
2019-05-02T03:08:51.326Z,83.39
2019-05-02T03:09:51.306Z,82.87
2019-05-02T03:10:51.298Z,83.07
2019-05-02T03:11:56.205Z,83.07
2019-05-02T03:12:51.292Z,83.25
2019-05-02T03:13:53.365Z,83.49
2019-05-02T03:14:51.257Z,83.69
2019-05-02T03:15:51.246Z,84.20
2019-05-02T03:16:51.248Z,84.10
2019-05-02T03:17:51.262Z,84.20
2019-05-02T03:18:51.205Z,84.00
2019-05-02T03:19:54.327Z,84.10
2019-05-02T03:20:51.193Z,84.20
2019-05-02T03:21:54.445Z,84.31
2019-05-02T03:22:52.166Z,83.80
2019-05-02T03:24:01.705Z,84.00
2019-05-02T03:24:51.200Z,83.69
2019-05-02T03:25:51.573Z,83.90
2019-05-02T03:26:55.225Z,83.90
2019-05-02T03:27:51.154Z,82.67
2019-05-02T03:28:57.616Z,83.28
2019-05-02T03:29:51.174Z,83.28
2019-05-02T03:30:51.086Z,82.77
2019-05-02T03:32:11.849Z,84.00
2019-05-02T03:33:06.337Z,83.63
2019-05-02T03:33:55.395Z,83.94
2019-05-02T03:34:54.008Z,83.83
2019-05-02T03:35:51.020Z,83.73
2019-05-02T03:36:51.075Z,84.34
2019-05-02T03:37:52.941Z,83.94
2019-05-02T03:38:50.994Z,83.94
2019-05-02T03:39:57.340Z,83.22
2019-05-02T03:40:50.962Z,82.81
2019-05-02T03:41:55.629Z,83.22
2019-05-02T03:42:51.978Z,83.42
2019-05-02T03:44:09.071Z,82.91
2019-05-02T03:45:00.104Z,82.70
2019-05-02T03:45:50.909Z,82.09
2019-05-02T03:46:54.284Z,82.91
2019-05-02T03:47:50.950Z,82.50
2019-05-02T03:48:50.890Z,82.91
2019-05-02T03:49:52.308Z,82.50
2019-05-02T03:50:50.867Z,81.99
2019-05-02T03:51:55.790Z,81.88
2019-05-02T03:52:50.840Z,82.03
2019-05-02T03:53:50.863Z,82.84
2019-05-02T03:54:52.487Z,82.64
2019-05-02T03:55:50.807Z,84.08
2019-05-02T03:56:51.579Z,83.77
2019-05-02T03:57:50.802Z,83.81
2019-05-02T03:58:56.483Z,83.61
2019-05-02T03:59:51.757Z,83.87
2019-05-02T04:01:00.981Z,84.08
2019-05-02T04:01:50.750Z,83.98
2019-05-02T04:02:58.930Z,84.42
2019-05-02T04:03:51.771Z,83.98
2019-05-02T04:04:54.069Z,83.98
2019-05-02T04:05:50.715Z,84.28
2019-05-02T04:06:54.934Z,84.42
2019-05-02T04:07:50.679Z,83.91
2019-05-02T04:08:58.862Z,84.32
2019-05-02T04:09:50.701Z,84.74
2019-05-02T04:10:52.750Z,84.74
2019-05-02T04:11:50.638Z,84.84
2019-05-02T04:12:53.079Z,84.84
2019-05-02T04:13:50.617Z,85.04
2019-05-02T04:14:55.625Z,84.22
2019-05-02T04:15:50.826Z,84.32
2019-05-02T04:16:55.147Z,84.28
2019-05-02T04:17:50.568Z,84.28
2019-05-02T04:18:55.797Z,84.18
2019-05-02T04:19:50.562Z,84.18
2019-05-02T04:20:51.961Z,84.18
2019-05-02T04:21:54.747Z,84.39
2019-05-02T04:22:50.934Z,83.77
2019-05-02T04:23:50.491Z,83.83
2019-05-02T04:24:54.507Z,83.87
2019-05-02T04:25:50.524Z,83.87
2019-05-02T04:26:54.051Z,84.28
2019-05-02T04:27:50.451Z,84.12
2019-05-02T04:28:51.900Z,84.74
2019-05-02T04:29:50.431Z,85.04
2019-05-02T04:30:51.350Z,85.35
2019-05-02T04:31:50.467Z,85.97
2019-05-02T04:32:55.873Z,85.04
2019-05-02T04:33:50.385Z,84.84
2019-05-02T04:34:55.064Z,85.25
2019-05-02T04:35:51.370Z,86.27
2019-05-02T04:37:00.001Z,86.17
2019-05-02T04:37:51.352Z,85.97
2019-05-02T04:38:52.383Z,85.97
2019-05-02T04:39:53.675Z,85.46
2019-05-02T04:40:51.322Z,85.25
2019-05-02T04:41:50.346Z,85.21
2019-05-02T04:43:00.310Z,85.14
2019-05-02T04:43:55.810Z,85.21
2019-05-02T04:45:12.044Z,85.52
2019-05-02T04:45:56.137Z,85.52
2019-05-02T04:46:50.291Z,85.31
2019-05-02T04:47:59.002Z,85.04
2019-05-02T04:48:52.821Z,85.11
2019-05-02T04:49:52.068Z,85.21
2019-05-02T04:50:51.682Z,85.72
2019-05-02T04:51:59.988Z,85.93
2019-05-02T04:52:53.923Z,85.41
2019-05-02T04:53:50.220Z,84.59
2019-05-02T04:54:50.159Z,84.59
2019-05-02T04:56:01.645Z,84.86
2019-05-02T04:56:55.180Z,84.45
2019-05-02T04:57:51.091Z,84.45
2019-05-02T04:58:50.141Z,84.14
2019-05-02T04:59:50.706Z,84.34
2019-05-02T05:00:53.485Z,84.45
2019-05-02T05:01:57.117Z,84.34
2019-05-02T05:02:53.255Z,84.25
2019-05-02T05:04:00.998Z,84.25
2019-05-02T05:04:50.067Z,84.20
2019-05-02T05:05:50.034Z,84.25
2019-05-02T05:06:55.897Z,84.10
2019-05-02T05:07:50.016Z,84.20
2019-05-02T05:08:50.037Z,84.31
2019-05-02T05:09:57.048Z,84.10
2019-05-02T05:10:50.985Z,83.80
2019-05-02T05:11:53.828Z,83.80
2019-05-02T05:12:50.974Z,83.18
2019-05-02T05:13:52.399Z,82.87
2019-05-02T05:14:50.992Z,83.39
2019-05-02T05:15:52.002Z,83.90
2019-05-02T05:16:51.760Z,84.00
2019-05-02T05:17:50.144Z,83.90
2019-05-02T05:18:53.137Z,83.90
2019-05-02T05:19:49.894Z,84.00
2019-05-02T05:20:52.949Z,83.39
2019-05-02T05:21:49.959Z,83.80
2019-05-02T05:22:49.850Z,84.31
2019-05-02T05:23:51.714Z,84.20
2019-05-02T05:24:49.830Z,83.80
2019-05-02T05:25:50.637Z,84.17
2019-05-02T05:26:50.862Z,83.69
2019-05-02T05:27:52.770Z,83.96
2019-05-02T05:28:49.791Z,83.55
2019-05-02T05:29:53.524Z,83.76
2019-05-02T05:30:52.193Z,83.14
2019-05-02T05:31:49.782Z,82.93
2019-05-02T05:32:49.755Z,82.42
2019-05-02T05:33:49.733Z,82.53
2019-05-02T05:34:49.717Z,82.90
2019-05-02T05:35:52.571Z,82.79
2019-05-02T05:36:49.766Z,82.28
2019-05-02T05:37:53.044Z,82.18
2019-05-02T05:38:49.695Z,82.28
2019-05-02T05:39:52.567Z,82.28
2019-05-02T05:40:50.244Z,82.08
2019-05-02T05:41:52.366Z,81.77
2019-05-02T05:42:49.655Z,82.59
2019-05-02T05:43:53.526Z,82.79
2019-05-02T05:44:49.952Z,82.69
2019-05-02T05:45:56.057Z,81.98
2019-05-02T05:46:49.590Z,82.18
2019-05-02T05:47:52.426Z,82.69
2019-05-02T05:48:49.581Z,82.79
2019-05-02T05:49:52.198Z,82.90
2019-05-02T05:50:50.543Z,81.87
2019-05-02T05:51:54.237Z,82.04
2019-05-02T05:52:51.824Z,82.18
2019-05-02T05:53:52.322Z,82.14
2019-05-02T05:54:49.512Z,81.98
2019-05-02T05:55:53.562Z,81.52
2019-05-02T05:56:49.491Z,82.24
2019-05-02T05:57:49.968Z,82.14
2019-05-02T05:58:52.555Z,82.04
2019-05-02T05:59:49.449Z,82.24
2019-05-02T06:00:54.191Z,81.12
2019-05-02T06:01:51.610Z,81.43
2019-05-02T06:02:53.747Z,81.63
2019-05-02T06:03:49.469Z,81.73
2019-05-02T06:04:50.172Z,82.24
2019-05-02T06:05:49.389Z,81.84
2019-05-02T06:06:49.404Z,82.24
2019-05-02T06:07:49.370Z,81.52
2019-05-02T06:08:54.253Z,81.52
2019-05-02T06:09:49.337Z,82.14
2019-05-02T06:10:49.325Z,82.49
2019-05-02T06:11:50.692Z,82.65
2019-05-02T06:12:49.311Z,82.65
2019-05-02T06:13:50.713Z,83.06
2019-05-02T06:14:49.319Z,81.84
2019-05-02T06:16:01.529Z,82.71
2019-05-02T06:16:51.701Z,81.59
2019-05-02T06:17:49.263Z,82.51
2019-05-02T06:18:49.243Z,81.70
2019-05-02T06:19:53.703Z,82.00
2019-05-02T06:20:49.216Z,81.79
2019-05-02T06:21:49.205Z,82.00
2019-05-02T06:22:49.200Z,80.98
2019-05-02T06:23:49.193Z,82.00
2019-05-02T06:24:50.784Z,81.15
2019-05-02T06:25:49.210Z,80.77
2019-05-02T06:26:50.196Z,80.33
2019-05-02T06:27:49.139Z,80.26
2019-05-02T06:28:49.141Z,80.77
2019-05-02T06:29:51.087Z,80.88
2019-05-02T06:30:49.164Z,80.63
2019-05-02T06:31:49.100Z,80.16
2019-05-02T06:32:49.981Z,80.94
2019-05-02T06:33:49.076Z,80.33
2019-05-02T06:34:49.076Z,79.96
2019-05-02T06:35:51.902Z,80.26
2019-05-02T06:36:49.086Z,80.46
2019-05-02T06:37:50.022Z,80.46
2019-05-02T06:38:52.098Z,80.22
2019-05-02T06:39:49.009Z,80.33
2019-05-02T06:40:49.002Z,80.16
2019-05-02T06:41:52.111Z,80.36
2019-05-02T06:42:48.991Z,80.67
2019-05-02T06:43:48.973Z,80.46
2019-05-02T06:44:48.953Z,79.64
2019-05-02T06:45:48.950Z,80.12
2019-05-02T06:46:48.940Z,80.63
2019-05-02T06:47:48.962Z,80.74
2019-05-02T06:48:52.240Z,80.43
2019-05-02T06:49:48.899Z,80.74
2019-05-02T06:50:48.887Z,80.02
2019-05-02T06:51:51.081Z,79.30
2019-05-02T06:52:48.905Z,79.20
2019-05-02T06:53:49.055Z,79.00
2019-05-02T06:54:48.844Z,79.50
2019-05-02T06:55:48.839Z,79.41
2019-05-02T06:56:49.226Z,79.50
2019-05-02T06:57:51.614Z,79.30
2019-05-02T06:58:48.844Z,79.82
2019-05-02T06:59:49.902Z,79.34
2019-05-02T07:00:57.575Z,79.75
2019-05-02T07:01:52.296Z,80.74
2019-05-02T07:02:48.770Z,80.43
2019-05-02T07:03:48.753Z,80.26
2019-05-02T07:04:48.783Z,79.41
2019-05-02T07:05:49.256Z,80.46
2019-05-02T07:06:58.276Z,80.94
2019-05-02T07:07:48.707Z,80.53
2019-05-02T07:08:48.696Z,79.50
2019-05-02T07:09:48.716Z,79.30
2019-05-02T07:10:48.782Z,79.50
2019-05-02T07:11:57.085Z,79.50
2019-05-02T07:12:51.179Z,79.61
2019-05-02T07:13:48.723Z,79.30
2019-05-02T07:14:48.638Z,79.00
2019-05-02T07:15:48.796Z,79.10
2019-05-02T07:16:49.633Z,79.30
2019-05-02T07:17:48.642Z,79.71
2019-05-02T07:18:49.645Z,79.20
2019-05-02T07:19:48.576Z,79.50
2019-05-02T07:20:48.595Z,78.79
2019-05-02T07:21:48.764Z,79.06
2019-05-02T07:22:48.553Z,78.75
2019-05-02T07:23:53.158Z,78.34
2019-05-02T07:24:49.525Z,77.42
2019-05-02T07:25:48.570Z,78.04
2019-05-02T07:26:52.112Z,77.53
2019-05-02T07:27:48.501Z,77.83
2019-05-02T07:28:48.489Z,77.83
2019-05-02T07:29:52.214Z,77.22
2019-05-02T07:30:49.505Z,77.63
2019-05-02T07:31:48.903Z,77.83
2019-05-02T07:32:48.439Z,77.42
2019-05-02T07:33:48.454Z,78.28
2019-05-02T07:34:49.494Z,78.65
2019-05-02T07:35:48.434Z,78.45
2019-05-02T07:36:48.469Z,78.24
2019-05-02T07:37:48.819Z,78.14
2019-05-02T07:38:48.380Z,77.90
2019-05-02T07:39:48.359Z,77.29
2019-05-02T07:40:52.985Z,77.19
2019-05-02T07:41:48.371Z,77.25
2019-05-02T07:42:48.359Z,76.84
2019-05-02T07:43:52.048Z,76.33
2019-05-02T07:44:48.307Z,75.41
2019-05-02T07:45:48.326Z,75.62
2019-05-02T07:46:52.058Z,75.71
2019-05-02T07:47:48.318Z,76.64
2019-05-02T07:48:49.047Z,75.21
2019-05-02T07:49:48.275Z,75.41
2019-05-02T07:50:48.373Z,75.92
2019-05-02T07:51:52.435Z,75.92
2019-05-02T07:52:49.264Z,75.62
2019-05-02T07:53:48.731Z,75.00
2019-05-02T07:54:48.196Z,75.51
2019-05-02T07:55:49.269Z,75.41
2019-05-02T07:56:48.680Z,75.62
2019-05-02T07:57:48.173Z,75.31
2019-05-02T07:58:48.219Z,74.90
2019-05-02T07:59:49.785Z,74.46
2019-05-02T08:00:48.191Z,74.87
2019-05-02T08:01:49.682Z,75.07
2019-05-02T08:02:48.116Z,75.58
2019-05-02T08:03:48.192Z,74.52
2019-05-02T08:04:48.086Z,75.34
2019-05-02T08:05:48.067Z,73.71
2019-05-02T08:06:48.085Z,75.27
2019-05-02T08:07:53.372Z,74.46
2019-05-02T08:08:48.053Z,75.44
2019-05-02T08:09:48.060Z,76.16
2019-05-02T08:10:48.022Z,73.91
2019-05-02T08:11:48.008Z,73.98
2019-05-02T08:12:48.009Z,74.25
2019-05-02T08:13:49.509Z,73.33
2019-05-02T08:14:48.022Z,72.52
2019-05-02T08:15:50.762Z,72.82
2019-05-02T08:16:47.948Z,72.28
2019-05-02T08:17:53.192Z,72.62
2019-05-02T08:18:47.950Z,71.80
2019-05-02T08:19:47.922Z,71.77
2019-05-02T08:20:51.106Z,72.28
2019-05-02T08:21:47.908Z,72.17
2019-05-02T08:22:48.927Z,71.67
2019-05-02T08:23:47.881Z,71.56
2019-05-02T08:24:47.861Z,71.87
2019-05-02T08:25:47.898Z,72.48
2019-05-02T08:26:47.863Z,72.08
2019-05-02T08:27:47.831Z,72.08
2019-05-02T08:28:51.900Z,71.77
2019-05-02T08:29:47.819Z,71.87
2019-05-02T08:30:47.797Z,70.95
2019-05-02T08:31:47.811Z,70.54
2019-05-02T08:32:47.777Z,70.04
2019-05-02T08:33:47.768Z,70.24
2019-05-02T08:34:51.857Z,71.43
2019-05-02T08:35:47.763Z,70.82
2019-05-02T08:36:47.773Z,71.36
2019-05-02T08:37:47.727Z,70.51
2019-05-02T08:38:48.901Z,71.53
2019-05-02T08:39:47.707Z,71.94
2019-05-02T08:40:49.637Z,71.12
2019-05-02T08:41:51.233Z,70.38
2019-05-02T08:42:47.716Z,69.63
2019-05-02T08:43:47.671Z,69.32
2019-05-02T08:44:51.199Z,69.43
2019-05-02T08:45:47.635Z,69.23
2019-05-02T08:46:51.329Z,68.41
2019-05-02T08:47:48.659Z,67.93
2019-05-02T08:48:50.543Z,68.85
2019-05-02T08:49:49.267Z,69.06
2019-05-02T08:50:47.582Z,68.75
2019-05-02T08:51:47.572Z,69.46
2019-05-02T08:52:48.060Z,68.82
2019-05-02T08:53:47.584Z,68.62
2019-05-02T08:54:47.541Z,68.27
2019-05-02T08:55:47.522Z,67.97
2019-05-02T08:56:47.513Z,67.46
2019-05-02T08:57:47.515Z,67.74
2019-05-02T08:58:49.864Z,66.61
2019-05-02T08:59:47.487Z,66.35
2019-05-02T09:00:47.657Z,67.57
2019-05-02T09:01:49.352Z,69.09
2019-05-02T09:02:47.450Z,68.14
2019-05-02T09:03:55.311Z,67.83
2019-05-02T09:04:58.280Z,67.94
2019-05-02T09:05:47.684Z,68.75
2019-05-02T09:06:47.418Z,68.01
2019-05-02T09:07:47.401Z,68.62
2019-05-02T09:08:51.520Z,67.88
2019-05-02T09:09:47.438Z,67.27
2019-05-02T09:10:47.359Z,65.74
2019-05-02T09:11:57.602Z,64.42
2019-05-02T09:12:48.342Z,66.05
2019-05-02T09:13:47.325Z,66.25
2019-05-02T09:14:47.371Z,66.15
2019-05-02T09:15:51.339Z,66.49
2019-05-02T09:16:47.301Z,66.38
2019-05-02T09:17:54.917Z,68.01
2019-05-02T09:18:53.364Z,66.69
2019-05-02T09:19:59.533Z,66.55
2019-05-02T09:20:52.728Z,66.15
2019-05-02T09:21:47.254Z,66.15
2019-05-02T09:22:54.096Z,65.44
2019-05-02T09:23:48.221Z,65.94
2019-05-02T09:24:47.211Z,65.41
2019-05-02T09:25:47.199Z,65.20
2019-05-02T09:26:47.206Z,65.48
2019-05-02T09:27:47.171Z,64.43
2019-05-02T09:28:47.485Z,64.43
2019-05-02T09:29:47.166Z,64.13
2019-05-02T09:30:47.155Z,63.42
2019-05-02T09:31:47.155Z,63.55
2019-05-02T09:32:47.149Z,63.85
2019-05-02T09:33:47.160Z,64.70
2019-05-02T09:34:47.115Z,63.91
2019-05-02T09:35:47.084Z,65.13
2019-05-02T09:36:47.076Z,65.88
2019-05-02T09:37:47.068Z,64.55
2019-05-02T09:38:48.812Z,64.35
2019-05-02T09:39:47.083Z,64.86
2019-05-02T09:40:51.545Z,65.74
2019-05-02T09:41:47.029Z,64.45
2019-05-02T09:42:47.501Z,64.45
2019-05-02T09:43:47.005Z,64.52
2019-05-02T09:44:48.000Z,66.02
2019-05-02T09:45:46.983Z,64.67
2019-05-02T09:46:47.371Z,64.36
2019-05-02T09:47:57.333Z,64.03
2019-05-02T09:48:46.995Z,63.82
2019-05-02T09:49:49.059Z,64.43
2019-05-02T09:50:46.956Z,62.48
2019-05-02T09:51:50.298Z,61.94
2019-05-02T09:52:46.960Z,62.65
2019-05-02T09:53:46.889Z,62.65
2019-05-02T09:54:46.930Z,61.60
2019-05-02T09:55:50.160Z,61.51
2019-05-02T09:56:46.871Z,60.97
2019-05-02T09:57:46.861Z,60.26
2019-05-02T09:58:49.283Z,61.20
2019-05-02T09:59:50.662Z,61.27
2019-05-02T10:00:46.830Z,60.16
2019-05-02T10:01:46.817Z,59.85
2019-05-02T10:02:46.825Z,59.95
2019-05-02T10:03:46.787Z,59.14
2019-05-02T10:04:46.772Z,59.22
2019-05-02T10:05:46.820Z,58.51
2019-05-02T10:06:46.756Z,57.20
2019-05-02T10:07:48.564Z,56.56
2019-05-02T10:08:46.840Z,57.50
2019-05-02T10:09:46.750Z,58.07
2019-05-02T10:10:46.787Z,57.24
2019-05-02T10:11:46.693Z,57.54
2019-05-02T10:12:46.690Z,56.56
2019-05-02T10:13:46.784Z,58.28
2019-05-02T10:14:46.674Z,56.26
2019-05-02T10:15:46.667Z,56.26
2019-05-02T10:16:46.690Z,55.75
2019-05-02T10:17:46.941Z,56.43
2019-05-02T10:18:46.643Z,55.32
2019-05-02T10:19:48.938Z,54.71
2019-05-02T10:20:46.647Z,55.42
2019-05-02T10:21:51.389Z,55.19
2019-05-02T10:22:46.573Z,55.19
2019-05-02T10:23:46.560Z,54.58
2019-05-02T10:24:46.566Z,54.08
2019-05-02T10:25:47.023Z,54.25
2019-05-02T10:26:46.549Z,53.25
2019-05-02T10:27:47.572Z,54.46
2019-05-02T10:28:50.479Z,54.05
2019-05-02T10:29:46.501Z,54.46
2019-05-02T10:30:47.425Z,54.86
2019-05-02T10:31:46.482Z,54.86
2019-05-02T10:32:47.279Z,54.13
2019-05-02T10:33:47.466Z,53.02
2019-05-02T10:34:47.673Z,52.23
2019-05-02T10:35:46.430Z,53.14
2019-05-02T10:36:46.430Z,52.84
2019-05-02T10:37:46.425Z,52.51
2019-05-02T10:38:48.993Z,53.12
2019-05-02T10:39:46.436Z,52.64
2019-05-02T10:40:48.322Z,52.72
2019-05-02T10:41:46.381Z,52.92
2019-05-02T10:42:46.353Z,54.03
2019-05-02T10:43:46.990Z,52.59
2019-05-02T10:44:46.370Z,51.96
2019-05-02T10:45:47.392Z,51.45
2019-05-02T10:46:46.325Z,51.89
2019-05-02T10:47:46.302Z,52.36
2019-05-02T10:48:46.286Z,51.15
2019-05-02T10:49:46.348Z,51.13
2019-05-02T10:50:46.314Z,52.14
2019-05-02T10:51:49.421Z,51.13
2019-05-02T10:52:46.251Z,48.93
2019-05-02T10:53:47.126Z,49.96
2019-05-02T10:54:46.237Z,50.16
2019-05-02T10:55:46.268Z,50.37
2019-05-02T10:56:46.197Z,50.87
2019-05-02T10:57:46.194Z,50.78
2019-05-02T10:58:46.191Z,50.37
2019-05-02T10:59:46.200Z,49.79
2019-05-02T11:00:46.164Z,50.70
2019-05-02T11:01:46.168Z,50.59
2019-05-02T11:02:46.130Z,50.78
2019-05-02T11:03:47.452Z,50.67
2019-05-02T11:04:46.114Z,50.87
2019-05-02T11:05:46.279Z,50.24
2019-05-02T11:06:46.428Z,51.53
2019-05-02T11:07:46.096Z,50.82
2019-05-02T11:08:46.233Z,50.82
2019-05-02T11:09:46.061Z,51.31
2019-05-02T11:10:46.055Z,49.97
2019-05-02T11:11:46.035Z,49.16
2019-05-02T11:12:47.136Z,48.79
2019-05-02T11:13:46.038Z,49.72
2019-05-02T11:14:46.056Z,49.82
2019-05-02T11:15:46.007Z,49.41
2019-05-02T11:16:45.987Z,49.41
2019-05-02T11:17:45.967Z,50.22
2019-05-02T11:18:45.969Z,50.40
2019-05-02T11:19:45.950Z,49.31
2019-05-02T11:20:45.989Z,49.19
2019-05-02T11:21:55.501Z,49.49
2019-05-02T11:22:46.912Z,48.08
2019-05-02T11:23:46.055Z,47.90
2019-05-02T11:24:45.914Z,47.88
2019-05-02T11:25:45.926Z,49.09
2019-05-02T11:26:45.876Z,48.08
2019-05-02T11:27:45.862Z,48.46
2019-05-02T11:28:45.847Z,49.16
2019-05-02T11:29:45.846Z,49.27
2019-05-02T11:30:45.854Z,48.94
2019-05-02T11:31:45.865Z,47.83
2019-05-02T11:32:45.812Z,47.05
2019-05-02T11:33:45.796Z,48.26
2019-05-02T11:34:45.795Z,48.34
2019-05-02T11:35:48.890Z,47.43
2019-05-02T11:36:46.804Z,47.00
2019-05-02T11:37:45.789Z,48.32
2019-05-02T11:38:49.409Z,47.81
2019-05-02T11:39:50.968Z,47.51
2019-05-02T11:40:45.723Z,47.11
2019-05-02T11:41:45.715Z,46.91
2019-05-02T11:42:45.741Z,47.74
2019-05-02T11:43:45.683Z,46.93
2019-05-02T11:44:45.737Z,47.94
2019-05-02T11:45:45.674Z,47.33
2019-05-02T11:46:47.119Z,47.23
2019-05-02T11:47:45.669Z,48.03
2019-05-02T11:48:55.383Z,47.86
2019-05-02T11:49:46.887Z,49.07
2019-05-02T11:50:46.608Z,48.89
2019-05-02T11:51:46.985Z,49.09
2019-05-02T11:52:45.605Z,48.61
2019-05-02T11:53:45.626Z,49.41
2019-05-02T11:54:48.501Z,48.10
2019-05-02T11:55:45.602Z,48.00
2019-05-02T11:56:48.735Z,48.81
2019-05-02T11:57:45.532Z,49.21
2019-05-02T11:58:48.234Z,47.90
2019-05-02T11:59:45.548Z,48.10
2019-05-02T12:00:49.603Z,48.50
2019-05-02T12:01:56.976Z,48.33
2019-05-02T12:02:49.080Z,49.11
2019-05-02T12:03:45.466Z,48.10
2019-05-02T12:04:47.355Z,47.60
2019-05-02T12:05:45.444Z,48.30
2019-05-02T12:06:50.100Z,49.41
2019-05-02T12:07:46.437Z,47.90
2019-05-02T12:08:49.326Z,48.49
2019-05-02T12:09:52.068Z,46.99
2019-05-02T12:10:45.399Z,47.19
2019-05-02T12:11:47.339Z,47.30
2019-05-02T12:12:45.371Z,49.19
2019-05-02T12:13:47.418Z,48.38
2019-05-02T12:14:46.400Z,48.08
2019-05-02T12:15:45.345Z,47.55
2019-05-02T12:16:45.337Z,47.86
2019-05-02T12:17:45.316Z,47.96
2019-05-02T12:18:45.313Z,47.86
2019-05-02T12:19:45.298Z,47.86
2019-05-02T12:20:45.333Z,48.03
2019-05-02T12:21:45.313Z,47.03
2019-05-02T12:22:45.308Z,46.00
2019-05-02T12:23:45.259Z,47.13
2019-05-02T12:24:45.528Z,47.53
2019-05-02T12:25:45.256Z,47.96
2019-05-02T12:26:46.603Z,48.56
2019-05-02T12:27:45.218Z,49.79
2019-05-02T12:28:45.196Z,50.40
2019-05-02T12:29:45.232Z,50.40
2019-05-02T12:30:45.187Z,50.30
2019-05-02T12:31:47.285Z,52.72
2019-05-02T12:32:46.168Z,52.22
2019-05-02T12:33:45.146Z,53.83
2019-05-02T12:34:45.158Z,52.74
2019-05-02T12:35:45.160Z,52.94
2019-05-02T12:36:45.113Z,52.54
2019-05-02T12:37:47.047Z,52.84
2019-05-02T12:38:45.096Z,52.36
2019-05-02T12:39:45.084Z,52.26
2019-05-02T12:40:45.120Z,52.36
2019-05-02T12:41:45.363Z,53.20
2019-05-02T12:42:45.049Z,54.53
2019-05-02T12:43:45.028Z,54.76
2019-05-02T12:44:45.030Z,55.36
2019-05-02T12:45:45.067Z,55.77
2019-05-02T12:46:44.995Z,56.78
2019-05-02T12:47:44.993Z,56.68
2019-05-02T12:48:44.982Z,56.98
2019-05-02T12:49:45.033Z,57.62
2019-05-02T12:50:44.969Z,57.62
2019-05-02T12:51:44.978Z,57.92
2019-05-02T12:52:44.953Z,58.02